sensor_id;sensor_type;location;lat;lon;timestamp;P1;durP1;ratioP1;P2;durP2;ratioP2
62268;SDS011;56517;51.634;5.566;2022-09-13T00:03:06;20.50;;;12.60;;
62268;SDS011;56517;51.634;5.566;2022-09-13T00:08:09;20.00;;;13.63;;
62268;SDS011;56517;51.634;5.566;2022-09-13T00:13:10;27.25;;;14.20;;
62268;SDS011;56517;51.634;5.566;2022-09-13T00:18:11;19.17;;;12.25;;
62268;SDS011;56517;51.634;5.566;2022-09-13T00:23:13;22.35;;;13.75;;
62268;SDS011;56517;51.634;5.566;2022-09-13T00:28:13;23.10;;;14.15;;
62268;SDS011;56517;51.634;5.566;2022-09-13T00:33:14;21.17;;;13.88;;
62268;SDS011;56517;51.634;5.566;2022-09-13T00:38:16;25.10;;;14.45;;
62268;SDS011;56517;51.634;5.566;2022-09-13T00:43:17;22.98;;;14.52;;
62268;SDS011;56517;51.634;5.566;2022-09-13T00:48:19;21.80;;;14.05;;
62268;SDS011;56517;51.634;5.566;2022-09-13T00:53:23;20.80;;;12.93;;
62268;SDS011;56517;51.634;5.566;2022-09-13T00:58:26;22.08;;;13.55;;
62268;SDS011;56517;51.634;5.566;2022-09-13T01:03:29;24.10;;;13.60;;
62268;SDS011;56517;51.634;5.566;2022-09-13T01:08:31;20.70;;;13.27;;
62268;SDS011;56517;51.634;5.566;2022-09-13T01:13:33;27.00;;;13.35;;
62268;SDS011;56517;51.634;5.566;2022-09-13T01:18:34;23.27;;;13.95;;
62268;SDS011;56517;51.634;5.566;2022-09-13T01:23:41;21.92;;;12.98;;
62268;SDS011;56517;51.634;5.566;2022-09-13T01:28:51;18.30;;;12.63;;
62268;SDS011;56517;51.634;5.566;2022-09-13T01:34:00;20.98;;;12.32;;
62268;SDS011;56517;51.634;5.566;2022-09-13T01:39:06;20.00;;;12.02;;
62268;SDS011;56517;51.634;5.566;2022-09-13T01:44:09;20.27;;;11.60;;
62268;SDS011;56517;51.634;5.566;2022-09-13T01:49:15;19.27;;;11.57;;
62268;SDS011;56517;51.634;5.566;2022-09-13T01:54:19;18.88;;;11.73;;
62268;SDS011;56517;51.634;5.566;2022-09-13T01:59:21;20.63;;;12.23;;
62268;SDS011;56517;51.634;5.566;2022-09-13T02:04:26;18.50;;;12.18;;
62268;SDS011;56517;51.634;5.566;2022-09-13T02:09:29;20.15;;;12.90;;
62268;SDS011;56517;51.634;5.566;2022-09-13T02:14:33;20.33;;;12.00;;
62268;SDS011;56517;51.634;5.566;2022-09-13T02:19:37;20.33;;;12.90;;
62268;SDS011;56517;51.634;5.566;2022-09-13T02:24:41;22.08;;;13.00;;
62268;SDS011;56517;51.634;5.566;2022-09-13T02:29:43;20.33;;;13.77;;
62268;SDS011;56517;51.634;5.566;2022-09-13T02:34:46;20.98;;;13.63;;
62268;SDS011;56517;51.634;5.566;2022-09-13T02:39:48;19.67;;;13.27;;
62268;SDS011;56517;51.634;5.566;2022-09-13T02:44:51;23.30;;;12.85;;
62268;SDS011;56517;51.634;5.566;2022-09-13T02:49:56;20.92;;;12.27;;
62268;SDS011;56517;51.634;5.566;2022-09-13T02:54:59;18.88;;;12.65;;
62268;SDS011;56517;51.634;5.566;2022-09-13T03:00:04;18.38;;;12.52;;
62268;SDS011;56517;51.634;5.566;2022-09-13T03:05:06;17.95;;;11.82;;
62268;SDS011;56517;51.634;5.566;2022-09-13T03:10:08;16.88;;;12.00;;
62268;SDS011;56517;51.634;5.566;2022-09-13T03:15:11;20.08;;;12.00;;
62268;SDS011;56517;51.634;5.566;2022-09-13T03:20:15;20.63;;;12.82;;
62268;SDS011;56517;51.634;5.566;2022-09-13T03:25:18;21.33;;;11.77;;
62268;SDS011;56517;51.634;5.566;2022-09-13T03:30:21;20.20;;;12.27;;
62268;SDS011;56517;51.634;5.566;2022-09-13T03:35:24;20.50;;;12.15;;
62268;SDS011;56517;51.634;5.566;2022-09-13T03:40:34;18.52;;;12.00;;
62268;SDS011;56517;51.634;5.566;2022-09-13T03:45:39;17.33;;;11.32;;
62268;SDS011;56517;51.634;5.566;2022-09-13T03:50:42;21.30;;;13.50;;
62268;SDS011;56517;51.634;5.566;2022-09-13T03:55:44;20.15;;;11.82;;
62268;SDS011;56517;51.634;5.566;2022-09-13T04:00:45;18.00;;;11.75;;
62268;SDS011;56517;51.634;5.566;2022-09-13T04:05:47;24.02;;;12.48;;
62268;SDS011;56517;51.634;5.566;2022-09-13T04:10:48;19.48;;;11.38;;
62268;SDS011;56517;51.634;5.566;2022-09-13T04:15:49;21.70;;;13.02;;
62268;SDS011;56517;51.634;5.566;2022-09-13T04:20:54;19.45;;;12.25;;
62268;SDS011;56517;51.634;5.566;2022-09-13T04:25:59;18.67;;;11.70;;
62268;SDS011;56517;51.634;5.566;2022-09-13T04:30:59;18.67;;;11.40;;
62268;SDS011;56517;51.634;5.566;2022-09-13T04:36:02;16.73;;;11.13;;
62268;SDS011;56517;51.634;5.566;2022-09-13T04:41:02;18.45;;;10.73;;
62268;SDS011;56517;51.634;5.566;2022-09-13T04:46:03;20.02;;;11.57;;
62268;SDS011;56517;51.634;5.566;2022-09-13T04:51:05;22.65;;;11.98;;
62268;SDS011;56517;51.634;5.566;2022-09-13T04:56:05;22.02;;;12.38;;
62268;SDS011;56517;51.634;5.566;2022-09-13T05:01:07;22.70;;;12.65;;
62268;SDS011;56517;51.634;5.566;2022-09-13T05:06:10;20.50;;;12.27;;
62268;SDS011;56517;51.634;5.566;2022-09-13T05:11:10;29.27;;;13.45;;
62268;SDS011;56517;51.634;5.566;2022-09-13T05:16:11;18.17;;;12.32;;
62268;SDS011;56517;51.634;5.566;2022-09-13T05:21:13;21.55;;;12.20;;
62268;SDS011;56517;51.634;5.566;2022-09-13T05:26:14;17.35;;;11.45;;
62268;SDS011;56517;51.634;5.566;2022-09-13T05:31:15;17.30;;;11.80;;
62268;SDS011;56517;51.634;5.566;2022-09-13T05:36:17;19.80;;;12.70;;
62268;SDS011;56517;51.634;5.566;2022-09-13T05:41:18;20.02;;;13.20;;
62268;SDS011;56517;51.634;5.566;2022-09-13T05:46:19;22.10;;;12.50;;
62268;SDS011;56517;51.634;5.566;2022-09-13T05:51:21;29.13;;;14.32;;
62268;SDS011;56517;51.634;5.566;2022-09-13T05:56:23;22.60;;;12.80;;
62268;SDS011;56517;51.634;5.566;2022-09-13T06:01:24;23.05;;;13.63;;
62268;SDS011;56517;51.634;5.566;2022-09-13T06:06:27;21.88;;;13.05;;
62268;SDS011;56517;51.634;5.566;2022-09-13T06:11:27;19.20;;;12.23;;
62268;SDS011;56517;51.634;5.566;2022-09-13T06:16:28;21.00;;;12.48;;
62268;SDS011;56517;51.634;5.566;2022-09-13T06:21:30;29.08;;;15.88;;
62268;SDS011;56517;51.634;5.566;2022-09-13T06:26:30;20.35;;;13.13;;
62268;SDS011;56517;51.634;5.566;2022-09-13T06:31:31;23.02;;;12.70;;
62268;SDS011;56517;51.634;5.566;2022-09-13T06:36:33;22.15;;;14.10;;
62268;SDS011;56517;51.634;5.566;2022-09-13T06:41:33;24.08;;;14.10;;
62268;SDS011;56517;51.634;5.566;2022-09-13T06:46:34;22.10;;;14.48;;
62268;SDS011;56517;51.634;5.566;2022-09-13T06:51:36;21.67;;;14.23;;
62268;SDS011;56517;51.634;5.566;2022-09-13T06:56:37;22.45;;;14.70;;
62268;SDS011;56517;51.634;5.566;2022-09-13T07:01:38;22.90;;;15.07;;
62268;SDS011;56517;51.634;5.566;2022-09-13T07:06:41;22.17;;;14.75;;
62268;SDS011;56517;51.634;5.566;2022-09-13T07:11:42;26.85;;;15.57;;
62268;SDS011;56517;51.634;5.566;2022-09-13T07:16:43;25.13;;;16.35;;
62268;SDS011;56517;51.634;5.566;2022-09-13T07:21:45;27.33;;;15.30;;
62268;SDS011;56517;51.634;5.566;2022-09-13T07:26:46;24.63;;;15.85;;
62268;SDS011;56517;51.634;5.566;2022-09-13T07:31:47;26.90;;;16.17;;
62268;SDS011;56517;51.634;5.566;2022-09-13T07:36:50;29.42;;;17.38;;
62268;SDS011;56517;51.634;5.566;2022-09-13T07:41:51;27.85;;;16.52;;
62268;SDS011;56517;51.634;5.566;2022-09-13T07:46:51;29.27;;;17.00;;
62268;SDS011;56517;51.634;5.566;2022-09-13T07:51:53;27.15;;;17.05;;
62268;SDS011;56517;51.634;5.566;2022-09-13T07:56:54;29.05;;;17.88;;
62268;SDS011;56517;51.634;5.566;2022-09-13T08:01:54;26.17;;;17.52;;
62268;SDS011;56517;51.634;5.566;2022-09-13T08:06:56;32.20;;;19.98;;
62268;SDS011;56517;51.634;5.566;2022-09-13T08:11:57;30.27;;;20.05;;
62268;SDS011;56517;51.634;5.566;2022-09-13T08:16:57;30.58;;;20.30;;
62268;SDS011;56517;51.634;5.566;2022-09-13T08:21:59;34.15;;;20.83;;
62268;SDS011;56517;51.634;5.566;2022-09-13T08:27:00;34.50;;;20.42;;
62268;SDS011;56517;51.634;5.566;2022-09-13T08:32:01;29.20;;;19.92;;
62268;SDS011;56517;51.634;5.566;2022-09-13T08:37:02;27.73;;;19.88;;
62268;SDS011;56517;51.634;5.566;2022-09-13T08:47:37;29.30;;;18.42;;
62268;SDS011;56517;51.634;5.566;2022-09-13T08:52:43;28.48;;;18.77;;
62268;SDS011;56517;51.634;5.566;2022-09-13T08:57:45;29.05;;;19.48;;
62268;SDS011;56517;51.634;5.566;2022-09-13T09:02:49;29.92;;;18.15;;
62268;SDS011;56517;51.634;5.566;2022-09-13T09:07:55;32.92;;;18.00;;
62268;SDS011;56517;51.634;5.566;2022-09-13T09:12:57;25.67;;;16.95;;
62268;SDS011;56517;51.634;5.566;2022-09-13T09:17:59;24.88;;;17.23;;
62268;SDS011;56517;51.634;5.566;2022-09-13T09:23:03;25.15;;;17.23;;
62268;SDS011;56517;51.634;5.566;2022-09-13T09:28:08;27.27;;;16.95;;
62268;SDS011;56517;51.634;5.566;2022-09-13T09:33:19;21.75;;;14.23;;
62268;SDS011;56517;51.634;5.566;2022-09-13T09:38:27;22.35;;;13.80;;
62268;SDS011;56517;51.634;5.566;2022-09-13T09:43:32;25.70;;;15.60;;
62268;SDS011;56517;51.634;5.566;2022-09-13T09:48:35;21.52;;;13.40;;
62268;SDS011;56517;51.634;5.566;2022-09-13T09:53:39;26.05;;;14.95;;
62268;SDS011;56517;51.634;5.566;2022-09-13T09:58:41;25.90;;;13.88;;
62268;SDS011;56517;51.634;5.566;2022-09-13T10:03:45;20.20;;;13.70;;
62268;SDS011;56517;51.634;5.566;2022-09-13T10:08:53;16.20;;;12.52;;
62268;SDS011;56517;51.634;5.566;2022-09-13T10:13:59;16.48;;;11.52;;
62268;SDS011;56517;51.634;5.566;2022-09-13T10:19:20;19.55;;;11.15;;
62268;SDS011;56517;51.634;5.566;2022-09-13T10:24:23;14.30;;;8.57;;
62268;SDS011;56517;51.634;5.566;2022-09-13T10:29:24;14.80;;;10.40;;
62268;SDS011;56517;51.634;5.566;2022-09-13T10:34:26;17.15;;;11.30;;
62268;SDS011;56517;51.634;5.566;2022-09-13T10:39:30;16.48;;;11.68;;
62268;SDS011;56517;51.634;5.566;2022-09-13T10:44:32;14.82;;;9.75;;
62268;SDS011;56517;51.634;5.566;2022-09-13T10:49:37;14.10;;;9.15;;
62268;SDS011;56517;51.634;5.566;2022-09-13T10:54:39;12.63;;;8.40;;
62268;SDS011;56517;51.634;5.566;2022-09-13T10:59:40;12.45;;;7.90;;
62268;SDS011;56517;51.634;5.566;2022-09-13T11:04:50;12.30;;;9.30;;
62268;SDS011;56517;51.634;5.566;2022-09-13T11:09:57;14.63;;;10.18;;
62268;SDS011;56517;51.634;5.566;2022-09-13T11:15:03;16.90;;;10.80;;
62268;SDS011;56517;51.634;5.566;2022-09-13T11:20:17;15.43;;;9.82;;
62268;SDS011;56517;51.634;5.566;2022-09-13T11:30:41;16.03;;;10.07;;
62268;SDS011;56517;51.634;5.566;2022-09-13T11:35:52;14.73;;;10.75;;
62268;SDS011;56517;51.634;5.566;2022-09-13T11:40:55;14.27;;;10.70;;
62268;SDS011;56517;51.634;5.566;2022-09-13T11:46:00;24.33;;;14.00;;
62268;SDS011;56517;51.634;5.566;2022-09-13T11:51:03;18.88;;;12.73;;
62268;SDS011;56517;51.634;5.566;2022-09-13T11:56:09;18.58;;;11.63;;
62268;SDS011;56517;51.634;5.566;2022-09-13T12:01:12;16.63;;;9.57;;
62268;SDS011;56517;51.634;5.566;2022-09-13T12:06:17;14.27;;;9.82;;
62268;SDS011;56517;51.634;5.566;2022-09-13T12:11:20;14.90;;;10.05;;
62268;SDS011;56517;51.634;5.566;2022-09-13T12:16:24;14.80;;;10.70;;
62268;SDS011;56517;51.634;5.566;2022-09-13T12:21:26;17.73;;;11.07;;
62268;SDS011;56517;51.634;5.566;2022-09-13T12:26:29;19.40;;;11.73;;
62268;SDS011;56517;51.634;5.566;2022-09-13T12:31:31;14.55;;;10.35;;
62268;SDS011;56517;51.634;5.566;2022-09-13T12:36:42;16.42;;;11.20;;
62268;SDS011;56517;51.634;5.566;2022-09-13T12:41:50;16.27;;;11.10;;
62268;SDS011;56517;51.634;5.566;2022-09-13T12:52:20;14.32;;;9.07;;
62268;SDS011;56517;51.634;5.566;2022-09-13T12:57:25;16.20;;;10.38;;
62268;SDS011;56517;51.634;5.566;2022-09-13T13:02:30;12.93;;;9.15;;
62268;SDS011;56517;51.634;5.566;2022-09-13T13:07:34;11.45;;;7.82;;
62268;SDS011;56517;51.634;5.566;2022-09-13T13:12:36;12.27;;;8.25;;
62268;SDS011;56517;51.634;5.566;2022-09-13T13:17:41;13.98;;;7.95;;
62268;SDS011;56517;51.634;5.566;2022-09-13T13:22:50;9.30;;;6.68;;
62268;SDS011;56517;51.634;5.566;2022-09-13T13:27:51;12.65;;;7.93;;
62268;SDS011;56517;51.634;5.566;2022-09-13T13:43:29;10.10;;;7.25;;
62268;SDS011;56517;51.634;5.566;2022-09-13T13:48:35;12.50;;;7.53;;
62268;SDS011;56517;51.634;5.566;2022-09-13T13:53:35;12.82;;;7.47;;
62268;SDS011;56517;51.634;5.566;2022-09-13T13:58:41;9.70;;;5.95;;
62268;SDS011;56517;51.634;5.566;2022-09-13T14:03:54;10.57;;;6.65;;
62268;SDS011;56517;51.634;5.566;2022-09-13T14:09:02;10.07;;;6.97;;
62268;SDS011;56517;51.634;5.566;2022-09-13T14:14:10;11.05;;;7.00;;
62268;SDS011;56517;51.634;5.566;2022-09-13T14:19:16;9.02;;;5.43;;
62268;SDS011;56517;51.634;5.566;2022-09-13T14:24:19;8.65;;;6.07;;
62268;SDS011;56517;51.634;5.566;2022-09-13T14:29:21;9.95;;;6.22;;
62268;SDS011;56517;51.634;5.566;2022-09-13T14:34:22;9.07;;;6.15;;
62268;SDS011;56517;51.634;5.566;2022-09-13T14:39:24;8.38;;;5.45;;
62268;SDS011;56517;51.634;5.566;2022-09-13T14:44:27;10.13;;;5.63;;
62268;SDS011;56517;51.634;5.566;2022-09-13T14:49:29;6.65;;;4.95;;
62268;SDS011;56517;51.634;5.566;2022-09-13T14:54:32;8.65;;;5.43;;
62268;SDS011;56517;51.634;5.566;2022-09-13T14:59:39;8.27;;;5.45;;
62268;SDS011;56517;51.634;5.566;2022-09-13T15:04:42;10.80;;;5.95;;
62268;SDS011;56517;51.634;5.566;2022-09-13T15:09:43;9.55;;;5.90;;
62268;SDS011;56517;51.634;5.566;2022-09-13T15:14:45;7.85;;;5.20;;
62268;SDS011;56517;51.634;5.566;2022-09-13T15:19:47;9.98;;;5.80;;
62268;SDS011;56517;51.634;5.566;2022-09-13T15:24:49;11.20;;;5.65;;
62268;SDS011;56517;51.634;5.566;2022-09-13T15:29:52;7.75;;;5.60;;
62268;SDS011;56517;51.634;5.566;2022-09-13T15:34:54;13.40;;;5.57;;
62268;SDS011;56517;51.634;5.566;2022-09-13T15:40:13;12.52;;;6.40;;
62268;SDS011;56517;51.634;5.566;2022-09-13T15:45:16;14.93;;;6.70;;
62268;SDS011;56517;51.634;5.566;2022-09-13T15:50:17;11.80;;;6.45;;
62268;SDS011;56517;51.634;5.566;2022-09-13T15:55:18;11.05;;;6.10;;
62268;SDS011;56517;51.634;5.566;2022-09-13T16:00:21;11.32;;;5.90;;
62268;SDS011;56517;51.634;5.566;2022-09-13T16:05:22;10.93;;;5.72;;
62268;SDS011;56517;51.634;5.566;2022-09-13T16:10:22;10.13;;;5.85;;
62268;SDS011;56517;51.634;5.566;2022-09-13T16:15:25;9.73;;;5.57;;
62268;SDS011;56517;51.634;5.566;2022-09-13T16:20:25;10.18;;;6.20;;
62268;SDS011;56517;51.634;5.566;2022-09-13T16:25:26;11.45;;;6.30;;
62268;SDS011;56517;51.634;5.566;2022-09-13T16:30:28;11.23;;;6.80;;
62268;SDS011;56517;51.634;5.566;2022-09-13T16:35:29;11.32;;;5.95;;
62268;SDS011;56517;51.634;5.566;2022-09-13T16:40:30;11.40;;;7.43;;
62268;SDS011;56517;51.634;5.566;2022-09-13T16:45:33;10.48;;;6.80;;
62268;SDS011;56517;51.634;5.566;2022-09-13T16:50:33;11.90;;;6.90;;
62268;SDS011;56517;51.634;5.566;2022-09-13T16:55:34;13.25;;;6.95;;
62268;SDS011;56517;51.634;5.566;2022-09-13T17:00:37;10.93;;;5.55;;
62268;SDS011;56517;51.634;5.566;2022-09-13T17:05:37;15.35;;;5.55;;
62268;SDS011;56517;51.634;5.566;2022-09-13T17:10:38;7.90;;;5.00;;
62268;SDS011;56517;51.634;5.566;2022-09-13T17:15:40;11.27;;;4.72;;
62268;SDS011;56517;51.634;5.566;2022-09-13T17:20:43;9.32;;;5.50;;
62268;SDS011;56517;51.634;5.566;2022-09-13T17:25:45;10.95;;;5.53;;
62268;SDS011;56517;51.634;5.566;2022-09-13T17:30:47;11.93;;;5.80;;
62268;SDS011;56517;51.634;5.566;2022-09-13T17:35:56;12.27;;;6.05;;
62268;SDS011;56517;51.634;5.566;2022-09-13T17:40:57;9.90;;;5.07;;
62268;SDS011;56517;51.634;5.566;2022-09-13T17:46:03;13.32;;;4.88;;
62268;SDS011;56517;51.634;5.566;2022-09-13T17:51:04;10.10;;;5.13;;
62268;SDS011;56517;51.634;5.566;2022-09-13T17:56:06;16.05;;;5.70;;
62268;SDS011;56517;51.634;5.566;2022-09-13T18:01:08;10.40;;;5.13;;
62268;SDS011;56517;51.634;5.566;2022-09-13T18:06:09;9.75;;;4.60;;
62268;SDS011;56517;51.634;5.566;2022-09-13T18:11:11;11.43;;;4.93;;
62268;SDS011;56517;51.634;5.566;2022-09-13T18:16:14;8.07;;;4.63;;
62268;SDS011;56517;51.634;5.566;2022-09-13T18:21:15;12.48;;;5.18;;
62268;SDS011;56517;51.634;5.566;2022-09-13T18:26:17;11.38;;;5.13;;
62268;SDS011;56517;51.634;5.566;2022-09-13T18:31:20;8.35;;;4.28;;
62268;SDS011;56517;51.634;5.566;2022-09-13T18:36:21;10.23;;;5.28;;
62268;SDS011;56517;51.634;5.566;2022-09-13T18:41:22;12.77;;;4.45;;
62268;SDS011;56517;51.634;5.566;2022-09-13T18:46:24;12.27;;;5.43;;
62268;SDS011;56517;51.634;5.566;2022-09-13T18:51:26;10.98;;;4.45;;
62268;SDS011;56517;51.634;5.566;2022-09-13T18:56:27;11.73;;;4.85;;
62268;SDS011;56517;51.634;5.566;2022-09-13T19:01:30;16.83;;;4.93;;
62268;SDS011;56517;51.634;5.566;2022-09-13T19:06:31;8.05;;;4.35;;
62268;SDS011;56517;51.634;5.566;2022-09-13T19:11:33;7.53;;;3.88;;
62268;SDS011;56517;51.634;5.566;2022-09-13T19:16:35;9.98;;;4.95;;
62268;SDS011;56517;51.634;5.566;2022-09-13T19:21:36;10.43;;;4.65;;
62268;SDS011;56517;51.634;5.566;2022-09-13T19:26:37;7.13;;;3.28;;
62268;SDS011;56517;51.634;5.566;2022-09-13T19:31:40;9.05;;;4.38;;
62268;SDS011;56517;51.634;5.566;2022-09-13T19:36:41;10.45;;;5.60;;
62268;SDS011;56517;51.634;5.566;2022-09-13T19:41:42;9.93;;;4.60;;
62268;SDS011;56517;51.634;5.566;2022-09-13T19:46:44;8.45;;;4.10;;
62268;SDS011;56517;51.634;5.566;2022-09-13T19:51:44;10.73;;;4.00;;
62268;SDS011;56517;51.634;5.566;2022-09-13T19:56:45;18.42;;;6.13;;
62268;SDS011;56517;51.634;5.566;2022-09-13T20:01:47;7.90;;;4.25;;
62268;SDS011;56517;51.634;5.566;2022-09-13T20:06:48;9.93;;;4.95;;
62268;SDS011;56517;51.634;5.566;2022-09-13T20:11:49;9.98;;;4.68;;
62268;SDS011;56517;51.634;5.566;2022-09-13T20:16:51;7.70;;;3.85;;
62268;SDS011;56517;51.634;5.566;2022-09-13T20:21:52;7.65;;;4.25;;
62268;SDS011;56517;51.634;5.566;2022-09-13T20:26:52;11.57;;;5.60;;
62268;SDS011;56517;51.634;5.566;2022-09-13T20:31:54;8.07;;;4.13;;
62268;SDS011;56517;51.634;5.566;2022-09-13T20:36:55;6.70;;;4.50;;
62268;SDS011;56517;51.634;5.566;2022-09-13T20:41:55;8.45;;;3.85;;
62268;SDS011;56517;51.634;5.566;2022-09-13T20:46:57;8.45;;;4.07;;
62268;SDS011;56517;51.634;5.566;2022-09-13T20:51:58;11.52;;;4.28;;
62268;SDS011;56517;51.634;5.566;2022-09-13T20:56:58;28.58;;;6.57;;
62268;SDS011;56517;51.634;5.566;2022-09-13T21:02:00;10.27;;;4.43;;
62268;SDS011;56517;51.634;5.566;2022-09-13T21:07:01;7.97;;;4.30;;
62268;SDS011;56517;51.634;5.566;2022-09-13T21:12:01;10.00;;;4.40;;
62268;SDS011;56517;51.634;5.566;2022-09-13T21:17:03;6.50;;;4.25;;
62268;SDS011;56517;51.634;5.566;2022-09-13T21:22:04;8.90;;;5.28;;
62268;SDS011;56517;51.634;5.566;2022-09-13T21:27:05;6.53;;;3.90;;
62268;SDS011;56517;51.634;5.566;2022-09-13T21:32:07;8.05;;;4.35;;
62268;SDS011;56517;51.634;5.566;2022-09-13T21:37:07;9.23;;;5.07;;
62268;SDS011;56517;51.634;5.566;2022-09-13T21:42:08;10.85;;;4.68;;
62268;SDS011;56517;51.634;5.566;2022-09-13T21:47:10;6.95;;;4.22;;
62268;SDS011;56517;51.634;5.566;2022-09-13T21:52:10;6.07;;;4.00;;
62268;SDS011;56517;51.634;5.566;2022-09-13T21:57:11;6.63;;;3.97;;
62268;SDS011;56517;51.634;5.566;2022-09-13T22:02:13;7.60;;;4.57;;
62268;SDS011;56517;51.634;5.566;2022-09-13T22:07:13;8.35;;;3.85;;
62268;SDS011;56517;51.634;5.566;2022-09-13T22:12:14;7.82;;;4.32;;
62268;SDS011;56517;51.634;5.566;2022-09-13T22:17:16;7.07;;;4.00;;
62268;SDS011;56517;51.634;5.566;2022-09-13T22:22:16;6.70;;;3.75;;
62268;SDS011;56517;51.634;5.566;2022-09-13T22:27:17;11.75;;;4.97;;
62268;SDS011;56517;51.634;5.566;2022-09-13T22:32:19;10.77;;;4.70;;
62268;SDS011;56517;51.634;5.566;2022-09-13T22:37:20;9.25;;;4.47;;
62268;SDS011;56517;51.634;5.566;2022-09-13T22:42:20;7.53;;;4.28;;
62268;SDS011;56517;51.634;5.566;2022-09-13T22:47:22;8.30;;;4.07;;
62268;SDS011;56517;51.634;5.566;2022-09-13T22:52:23;10.35;;;4.57;;
62268;SDS011;56517;51.634;5.566;2022-09-13T22:57:23;10.93;;;4.63;;
62268;SDS011;56517;51.634;5.566;2022-09-13T23:02:25;9.32;;;4.90;;
62268;SDS011;56517;51.634;5.566;2022-09-13T23:07:26;8.60;;;3.97;;
62268;SDS011;56517;51.634;5.566;2022-09-13T23:12:27;11.52;;;4.25;;
62268;SDS011;56517;51.634;5.566;2022-09-13T23:17:29;8.45;;;4.63;;
62268;SDS011;56517;51.634;5.566;2022-09-13T23:22:30;7.85;;;4.30;;
62268;SDS011;56517;51.634;5.566;2022-09-13T23:27:30;10.88;;;4.88;;
62268;SDS011;56517;51.634;5.566;2022-09-13T23:32:32;14.80;;;5.72;;
62268;SDS011;56517;51.634;5.566;2022-09-13T23:37:33;10.38;;;5.00;;
62268;SDS011;56517;51.634;5.566;2022-09-13T23:42:33;7.30;;;4.63;;
62268;SDS011;56517;51.634;5.566;2022-09-13T23:47:35;13.75;;;4.72;;
62268;SDS011;56517;51.634;5.566;2022-09-13T23:52:36;9.57;;;5.28;;
62268;SDS011;56517;51.634;5.566;2022-09-13T23:57:36;6.47;;;4.88;;
